KSFZ/SFZ METAR and TAF weather

Enter ICAO airport designator
Station Type Date Time Source
KSFZ METAR 2022/01/26 13:56 UTC NOAA

KSFZ 261356Z AUTO 32008KT 10SM CLR M07/M16 A3024 RMK AO2 SLP255 T10671156 FZRANO $


Station Type Date Time Source
KSFZ Decoded METAR 2022/01/26 13:56 UTC NOAA

Pawtucket, North Central State Airport, RI, United States (KSFZ) 41-55N 071-30W
Jan 26, 2022 - 08:56 AM EST / 2022.01.26 1356 UTC
Wind: from the NW (320 degrees) at 9 MPH (8 KT):0
Visibility: 10 mile(s):0
Sky conditions: clear
Temperature: 19.9 F (-6.7 C)
Windchill: 8 F (-13 C):1
Dew Point: 3.9 F (-15.6 C)
Relative Humidity: 49%
Pressure (altimeter): 30.24 in. Hg (1024 hPa)
ob: KSFZ 261356Z AUTO 32008KT 10SM CLR M07/M16 A3024 RMK AO2 SLP255 T10671156 FZRANO
cycle: 14

Station Type Date Time Source
KSFZ TAF UTC NOAA

Error!

Example: see airport list